Time;durP1;ratioP1;P1;durP2;ratioP2;P2;SDS_P1;SDS_P2;PMS_P1;PMS_P2;Temp;Humidity;BMP_temperature;BMP_pressure;BME280_temperature;BME280_humidity;BME280_pressure;Samples;Min_cycle;Max_cycle;Signal;HPM_P1;HPM_P2
2023/07/19 00:01:52;;;;;;;;;2.25;2.25;;;;;18.98;64.16;101433.16;4948951;28;9553;-66
2023/07/19 00:04:19;;;;;;;;;1.00;1.00;;;;;18.97;64.30;101432.34;4963023;28;8840;-67
2023/07/19 00:06:46;;;;;;;;;2.00;2.00;;;;;18.97;64.42;101421.44;4949259;28;8944;-66
2023/07/19 00:09:12;;;;;;;;;3.00;1.00;;;;;18.98;64.33;101425.81;4949425;28;8820;-67
2023/07/19 00:11:39;;;;;;;;;1.50;1.50;;;;;18.97;64.28;101426.88;4949250;28;8907;-65
2023/07/19 00:14:06;;;;;;;;;1.00;1.00;;;;;18.97;64.46;101417.88;4952590;28;8828;-66
2023/07/19 00:16:33;;;;;;;;;1.75;1.75;;;;;18.97;64.33;101418.69;4952556;28;8828;-66
2023/07/19 00:19:00;;;;;;;;;1.75;1.25;;;;;18.96;64.39;101421.66;4949262;28;8838;-67
2023/07/19 00:21:45;;;;;;;;;1.00;1.00;;;;;18.95;64.39;101419.97;4948143;28;8874;-68
2023/07/19 00:24:11;;;;;;;;;1.75;1.75;;;;;18.95;64.51;101420.81;4953319;28;8836;-67
2023/07/19 00:26:38;;;;;;;;;3.75;2.00;;;;;18.96;64.44;101418.94;4949339;28;8820;-67
2023/07/19 00:29:05;;;;;;;;;2.00;2.00;;;;;18.95;64.47;101423.53;4947394;28;8896;-67
2023/07/19 00:31:32;;;;;;;;;2.00;2.00;;;;;18.95;64.45;101412.63;4947521;28;8929;-67
2023/07/19 00:33:58;;;;;;;;;2.00;2.00;;;;;18.96;64.37;101410.75;4948566;28;8882;-68
2023/07/19 00:36:25;;;;;;;;;2.00;2.00;;;;;18.95;64.20;101401.72;4948877;28;8886;-68
2023/07/19 00:38:52;;;;;;;;;0.25;0.25;;;;;18.95;64.30;101400.88;4964186;28;8832;-68
2023/07/19 00:41:18;;;;;;;;;2.00;2.00;;;;;18.95;64.34;101400.88;4947466;29;8840;-67
2023/07/19 00:43:46;;;;;;;;;2.25;1.00;;;;;18.95;64.15;101403.63;4948548;28;8932;-67
2023/07/19 00:46:15;;;;;;;;;1.33;1.33;;;;;18.95;64.74;101403.63;4932858;29;9538;-68
2023/07/19 00:48:42;;;;;;;;;0.25;0.25;;;;;18.94;64.64;101410.97;4948807;28;8969;-68
2023/07/19 00:51:09;;;;;;;;;1.75;1.75;;;;;18.94;64.48;101410.16;4948637;28;8820;-67
2023/07/19 00:53:38;;;;;;;;;1.67;1.67;;;;;18.92;64.66;101410.41;4950436;28;8844;-67
2023/07/19 00:56:07;;;;;;;;;1.00;1.00;;;;;18.93;64.79;101411.22;4948262;28;9920;-67
2023/07/19 00:58:35;;;;;;;;;3.00;3.00;;;;;18.92;64.87;101410.41;4948752;29;9563;-67
2023/07/19 01:01:01;;;;;;;;;0.25;0.00;;;;;18.92;64.93;101399.47;4949075;28;8893;-68
2023/07/19 01:03:28;;;;;;;;;1.00;1.00;;;;;18.93;64.82;101397.59;5036709;28;9630;-68
2023/07/19 01:05:57;;;;;;;;;1.50;1.50;;;;;18.93;64.74;101401.13;4951942;28;8901;-68
2023/07/19 01:08:24;;;;;;;;;2.25;2.25;;;;;18.92;64.70;101387.72;4947663;28;9589;-68
2023/07/19 01:10:51;;;;;;;;;2.00;2.00;;;;;18.91;64.92;101389.63;4950488;28;8883;-68
2023/07/19 01:13:18;;;;;;;;;2.00;2.00;;;;;18.90;65.12;101389.88;4954088;28;8839;-67
2023/07/19 01:15:44;;;;;;;;;2.00;1.33;;;;;18.88;65.18;101401.03;4951837;28;8855;-67
2023/07/19 01:18:11;;;;;;;;;1.75;1.75;;;;;18.87;65.27;101395.78;4950426;28;8923;-67
2023/07/19 01:20:37;;;;;;;;;2.00;2.00;;;;;18.87;65.17;101399.34;4992016;28;8875;-67
2023/07/19 01:23:04;;;;;;;;;2.00;2.00;;;;;18.85;65.30;101385.13;4951630;28;8920;-68
2023/07/19 01:25:31;;;;;;;;;2.00;2.00;;;;;18.85;65.13;101390.56;4951594;28;8937;-67
2023/07/19 01:27:58;;;;;;;;;2.50;1.00;;;;;18.86;65.27;101396.84;4966636;28;8949;-66
2023/07/19 01:30:24;;;;;;;;;2.00;2.00;;;;;18.85;65.37;101390.56;4982327;28;9565;-66
2023/07/19 01:32:51;;;;;;;;;1.25;1.25;;;;;18.86;65.42;101392.22;4952708;28;9016;-67
2023/07/19 01:35:18;;;;;;;;;1.75;1.75;;;;;18.86;65.30;101388.66;4992627;28;8847;-67
2023/07/19 01:37:45;;;;;;;;;2.75;1.00;;;;;18.87;65.33;101380.25;4950134;28;8841;-68
2023/07/19 01:40:11;;;;;;;;;1.75;1.75;;;;;18.86;65.76;101375.03;4950982;28;8917;-68
2023/07/19 01:42:39;;;;;;;;;3.00;3.00;;;;;18.88;65.55;101381.06;4950564;28;8831;-67
2023/07/19 01:45:06;;;;;;;;;2.00;2.00;;;;;18.87;65.76;101382.13;4950184;28;8963;-68
2023/07/19 01:47:34;;;;;;;;;2.25;1.25;;;;;18.86;65.86;101381.31;4959564;28;8861;-68
2023/07/19 01:50:02;;;;;;;;;2.00;2.00;;;;;18.85;66.42;101379.66;4951423;28;8844;-68
2023/07/19 01:52:29;;;;;;;;;4.00;4.00;;;;;18.83;66.41;101380.94;4964987;28;8898;-67
2023/07/19 01:54:55;;;;;;;;;1.75;1.00;;;;;18.83;66.54;101375.50;4949778;28;8844;-68
2023/07/19 01:57:23;;;;;;;;;2.00;2.00;;;;;18.83;66.74;101372.78;4942155;28;8829;-67
2023/07/19 01:59:49;;;;;;;;;1.50;1.50;;;;;18.81;67.00;101375.75;4965398;28;8953;-68
2023/07/19 02:02:16;;;;;;;;;2.25;1.75;;;;;18.81;66.88;101372.19;4979191;28;8978;-67
2023/07/19 02:04:42;;;;;;;;;2.00;2.00;;;;;18.79;67.04;101366.94;4957790;28;8898;-67
2023/07/19 02:07:10;;;;;;;;;2.50;1.75;;;;;18.78;67.05;101368.03;4949288;28;8882;-67
2023/07/19 02:09:37;;;;;;;;;1.33;1.33;;;;;18.77;67.19;101366.38;4950110;28;8824;-66
2023/07/19 02:12:04;;;;;;;;;1.00;1.00;;;;;18.76;67.12;101354.63;4949651;28;8966;-67
2023/07/19 02:14:30;;;;;;;;;1.25;1.00;;;;;18.75;67.05;101350.22;4963797;28;9521;-68
2023/07/19 02:16:57;;;;;;;;;1.00;1.00;;;;;18.74;67.29;101351.31;4950775;28;8832;-66
2023/07/19 02:19:23;;;;;;;;;2.75;2.00;;;;;18.72;67.16;101358.06;4965711;28;9050;-67
2023/07/19 02:21:51;;;;;;;;;2.00;2.00;;;;;18.70;67.18;101354.75;4950566;28;8848;-67
2023/07/19 02:24:18;;;;;;;;;1.00;1.00;;;;;18.73;67.29;101359.72;4946548;28;8920;-67
2023/07/19 02:26:47;;;;;;;;;1.33;1.00;;;;;18.74;67.16;101361.38;4956365;28;8970;-67
2023/07/19 02:29:14;;;;;;;;;2.75;1.50;;;;;18.73;67.56;101366.00;4949662;28;8992;-68
2023/07/19 02:31:42;;;;;;;;;3.75;2.00;;;;;18.75;67.70;101365.75;4949039;28;8844;-67
2023/07/19 02:34:10;;;;;;;;;2.25;2.00;;;;;18.74;67.56;101367.66;4950744;28;8847;-68
2023/07/19 02:36:37;;;;;;;;;2.75;1.50;;;;;18.74;67.67;101370.38;4950562;28;8836;-67
2023/07/19 02:39:04;;;;;;;;;3.50;2.50;;;;;18.73;67.42;101359.72;4949881;28;8839;-66
2023/07/19 02:41:31;;;;;;;;;2.00;1.00;;;;;18.72;67.25;101355.34;4990107;28;8905;-67
2023/07/19 02:43:59;;;;;;;;;1.25;1.25;;;;;18.69;66.72;101355.78;4980855;28;8828;-66
2023/07/19 02:46:26;;;;;;;;;2.00;2.00;;;;;18.68;66.58;101351.41;4964641;28;8921;-67
2023/07/19 02:48:52;;;;;;;;;2.00;2.00;;;;;18.65;66.05;101347.25;4965372;28;8828;-67
2023/07/19 02:51:19;;;;;;;;;0.00;0.00;;;;;18.63;65.51;101348.53;4963930;28;9524;-67
2023/07/19 02:53:46;;;;;;;;;0.25;0.25;;;;;18.62;65.41;101347.69;4950535;28;8824;-68
2023/07/19 02:56:12;;;;;;;;;1.00;1.00;;;;;18.60;65.09;101358.03;4949508;28;8825;-67
2023/07/19 02:58:39;;;;;;;;;1.00;1.00;;;;;18.56;65.27;101351.38;4965002;28;8844;-67
2023/07/19 03:01:06;;;;;;;;;0.75;0.00;;;;;18.54;65.02;101350.78;4948724;28;8852;-68
2023/07/19 03:03:32;;;;;;;;;1.75;1.00;;;;;18.50;64.81;101349.56;4961022;28;8836;-68
2023/07/19 03:06:02;;;;;;;;;0.00;0.00;;;;;18.47;64.88;101350.03;4950530;28;8933;-68
2023/07/19 03:08:29;;;;;;;;;0.75;0.75;;;;;18.43;65.17;101346.97;4965071;28;8852;-67
2023/07/19 03:10:55;;;;;;;;;0.00;0.00;;;;;18.41;65.34;101357.28;4950025;28;9556;-67
2023/07/19 03:13:22;;;;;;;;;0.25;0.25;;;;;18.37;65.38;101353.34;4968522;28;8802;-67
2023/07/19 03:15:49;;;;;;;;;0.00;0.00;;;;;18.36;65.50;101353.59;4950874;28;8882;-67
2023/07/19 03:18:16;;;;;;;;;1.00;1.00;;;;;18.35;65.62;101357.38;4948491;28;8800;-67
2023/07/19 03:20:43;;;;;;;;;1.50;0.50;;;;;18.33;65.74;101354.06;4964405;28;8860;-67
2023/07/19 03:23:10;;;;;;;;;1.00;1.00;;;;;18.30;65.53;101352.63;4948229;28;8830;-68
2023/07/19 03:25:37;;;;;;;;;0.75;0.00;;;;;18.29;65.71;101349.06;4949392;28;8926;-67
2023/07/19 03:28:04;;;;;;;;;0.00;0.00;;;;;18.28;65.96;101358.31;4964524;28;9625;-68
2023/07/19 03:30:30;;;;;;;;;0.00;0.00;;;;;18.26;66.06;101359.59;4949543;28;8951;-67
2023/07/19 03:32:58;;;;;;;;;0.75;0.75;;;;;18.25;66.02;101358.75;4950651;28;8845;-68
2023/07/19 03:35:25;;;;;;;;;0.75;0.75;;;;;18.23;66.22;101357.31;4948470;28;8836;-67
2023/07/19 03:37:51;;;;;;;;;0.75;0.75;;;;;18.22;66.37;101348.31;4970103;28;8840;-67
2023/07/19 03:40:18;;;;;;;;;0.00;0.00;;;;;18.21;66.34;101348.56;4964674;28;8829;-66
2023/07/19 03:42:45;;;;;;;;;0.00;0.00;;;;;18.20;66.89;101347.75;4946872;28;8923;-67
2023/07/19 03:45:12;;;;;;;;;0.00;0.00;;;;;18.20;66.93;101341.47;4961818;28;8882;-67
2023/07/19 03:47:39;;;;;;;;;0.67;0.67;;;;;18.19;66.98;101347.94;4947887;28;8840;-67
2023/07/19 03:50:07;;;;;;;;;1.00;1.00;;;;;18.16;67.10;101343.81;4954754;28;9802;-67
2023/07/19 03:52:33;;;;;;;;;2.50;1.00;;;;;18.16;67.08;101343.81;4947686;28;9038;-68
2023/07/19 03:55:00;;;;;;;;;0.00;0.00;;;;;18.15;67.35;101334.00;4947811;28;8816;-68
2023/07/19 03:57:31;;;;;;;;;0.00;0.00;;;;;18.15;67.53;101335.84;4948114;28;8879;-67
2023/07/19 03:59:59;;;;;;;;;0.00;0.00;;;;;18.15;67.63;101341.31;4948145;28;8967;-67
2023/07/19 04:02:26;;;;;;;;;1.75;1.75;;;;;18.14;67.77;101340.47;4946239;28;8840;-67
2023/07/19 04:04:52;;;;;;;;;1.00;0.00;;;;;18.15;67.63;101347.63;4948320;28;8828;-66
2023/07/19 04:07:19;;;;;;;;;0.00;0.00;;;;;18.17;67.57;101348.19;4948360;28;8859;-66
2023/07/19 04:09:45;;;;;;;;;0.33;0.00;;;;;18.16;67.81;101346.53;4949509;28;8931;-65
2023/07/19 04:12:13;;;;;;;;;1.00;1.00;;;;;18.18;67.86;101352.56;4946626;28;8945;-67
2023/07/19 04:14:40;;;;;;;;;0.75;0.75;;;;;18.19;67.70;101350.69;4948714;28;9619;-67
2023/07/19 04:17:07;;;;;;;;;0.50;0.50;;;;;18.18;67.70;101341.69;4948235;28;8872;-67
2023/07/19 04:19:34;;;;;;;;;0.50;0.50;;;;;18.20;68.12;101345.00;4949692;28;8800;-67
2023/07/19 04:22:01;;;;;;;;;0.00;0.00;;;;;18.20;68.10;101344.19;4961969;28;8864;-67
2023/07/19 04:24:29;;;;;;;;;0.00;0.00;;;;;18.22;68.10;101342.88;4948029;28;8840;-68
2023/07/19 04:26:56;;;;;;;;;0.00;0.00;;;;;18.23;68.41;101340.97;4942063;28;8874;-67
2023/07/19 04:29:22;;;;;;;;;2.00;1.00;;;;;18.21;68.40;101335.78;4972344;28;8890;-66
2023/07/19 04:31:49;;;;;;;;;1.00;1.00;;;;;18.22;68.73;101336.59;4949270;28;8856;-66
2023/07/19 04:34:16;;;;;;;;;0.75;0.75;;;;;18.19;69.02;101335.19;4961349;28;8832;-66
2023/07/19 04:36:45;;;;;;;;;1.00;1.00;;;;;18.20;69.04;101333.28;4971937;28;8833;-67
2023/07/19 04:39:11;;;;;;;;;1.00;1.00;;;;;18.20;69.37;101334.13;4950826;28;8905;-67
2023/07/19 04:41:39;;;;;;;;;2.00;1.00;;;;;18.22;69.55;101339.31;4951246;28;9706;-66
2023/07/19 04:44:06;;;;;;;;;0.00;0.00;;;;;18.23;69.46;101344.56;5035428;28;8840;-67
2023/07/19 04:46:33;;;;;;;;;0.75;0.75;;;;;18.25;69.83;101341.59;4952430;28;8890;-66
2023/07/19 04:48:59;;;;;;;;;0.75;0.75;;;;;18.27;70.01;101342.16;4955495;28;8982;-67
2023/07/19 04:51:26;;;;;;;;;0.75;0.75;;;;;18.26;70.14;101348.69;4950723;28;8851;-67
2023/07/19 04:53:53;;;;;;;;;0.33;0.33;;;;;18.27;70.29;101344.91;4967237;28;9513;-66
2023/07/19 04:56:20;;;;;;;;;0.00;0.00;;;;;18.29;70.38;101343.63;4962529;28;9765;-67
2023/07/19 04:58:49;;;;;;;;;0.25;0.25;;;;;18.31;70.18;101339.81;5029375;28;8872;-66
2023/07/19 05:01:16;;;;;;;;;1.00;1.00;;;;;18.31;70.49;101337.94;4953510;28;8898;-67
2023/07/19 05:03:43;;;;;;;;;1.00;1.00;;;;;18.33;70.35;101340.44;4951016;28;9023;-67
2023/07/19 05:06:10;;;;;;;;;0.75;0.75;;;;;18.33;70.48;101337.69;4956791;28;8920;-67
2023/07/19 05:08:37;;;;;;;;;1.00;1.00;;;;;18.35;70.39;101344.59;4974080;28;9549;-67
2023/07/19 05:11:04;;;;;;;;;0.75;0.75;;;;;18.36;70.70;101348.16;4967865;28;8959;-67
2023/07/19 05:13:31;;;;;;;;;0.75;0.75;;;;;18.35;70.59;101351.91;4946523;29;8835;-67
2023/07/19 05:16:00;;;;;;;;;1.00;1.00;;;;;18.34;70.22;101345.63;4963755;28;8850;-67
2023/07/19 05:18:26;;;;;;;;;1.00;1.00;;;;;18.34;70.40;101340.19;4950921;28;8848;-68
2023/07/19 05:20:53;;;;;;;;;1.00;1.00;;;;;18.36;70.54;101342.69;4954416;28;8921;-69
2023/07/19 05:23:20;;;;;;;;;1.00;0.50;;;;;18.41;70.25;101346.38;4951170;28;8813;-67
2023/07/19 05:25:47;;;;;;;;;2.00;1.25;;;;;18.42;69.98;101352.66;4966797;28;9552;-67
2023/07/19 05:28:13;;;;;;;;;2.00;1.75;;;;;18.41;69.45;101357.28;4951300;28;8831;-67
2023/07/19 05:30:40;;;;;;;;;2.00;2.00;;;;;18.36;69.42;101353.59;4951124;28;8835;-66
2023/07/19 05:33:07;;;;;;;;;2.00;2.00;;;;;18.34;69.78;101347.53;4958222;28;8836;-66
2023/07/19 05:35:33;;;;;;;;;2.00;2.00;;;;;18.32;69.76;101344.22;4978125;28;8828;-67
2023/07/19 05:38:00;;;;;;;;;3.00;3.00;;;;;18.25;69.38;101344.31;4955012;28;9547;-67
2023/07/19 05:40:27;;;;;;;;;2.00;2.00;;;;;18.18;69.06;101344.41;4949672;28;8937;-67
2023/07/19 05:42:54;;;;;;;;;1.50;1.50;;;;;18.17;69.34;101345.47;4950082;28;8859;-66
2023/07/19 05:45:21;;;;;;;;;1.00;1.00;;;;;18.19;69.30;101337.91;4947030;28;8856;-66
2023/07/19 05:47:48;;;;;;;;;1.25;1.25;;;;;18.27;69.21;101350.34;4947625;28;8832;-67
2023/07/19 05:50:14;;;;;;;;;1.00;1.00;;;;;18.39;68.84;101344.94;4948157;28;9469;-66
2023/07/19 05:52:41;;;;;;;;;2.33;1.00;;;;;18.42;68.34;101358.94;4943180;28;8874;-66
2023/07/19 05:55:08;;;;;;;;;1.75;1.75;;;;;18.45;68.07;101352.19;4957033;28;9082;-67
2023/07/19 05:57:34;;;;;;;;;0.75;0.75;;;;;18.49;68.25;101356.09;4948753;28;9550;-66
2023/07/19 06:00:14;;;;;;;;;1.00;1.00;;;;;18.56;68.20;101348.66;4952259;28;8813;-67
2023/07/19 06:02:47;;;;;;;;;0.00;0.00;;;;;18.59;67.76;101336.44;4951034;28;8962;-67
2023/07/19 06:05:23;;;;;;;;;1.00;1.00;;;;;18.62;67.75;101344.97;4949930;28;8832;-67
2023/07/19 06:07:49;;;;;;;;;1.50;1.00;;;;;18.64;67.55;101339.31;4976473;28;8911;-67
2023/07/19 06:10:16;;;;;;;;;2.00;1.00;;;;;18.63;67.00;101335.72;5032260;28;8933;-67
2023/07/19 06:12:43;;;;;;;;;0.00;0.00;;;;;18.63;66.83;101343.06;5032198;28;8991;-67
2023/07/19 06:15:11;;;;;;;;;0.00;0.00;;;;;18.64;66.47;101336.56;5025695;28;8850;-68
2023/07/19 06:17:40;;;;;;;;;0.50;0.50;;;;;18.64;66.67;101339.31;4932036;29;8826;-67
2023/07/19 06:20:10;;;;;;;;;0.00;0.00;;;;;18.65;66.76;101335.50;4946938;28;8851;-68
2023/07/19 06:22:37;;;;;;;;;0.25;0.25;;;;;18.64;66.67;101345.59;4950575;28;8897;-67
2023/07/19 06:25:04;;;;;;;;;0.00;0.00;;;;;18.63;66.75;101338.44;4951456;28;8836;-68
2023/07/19 06:27:30;;;;;;;;;1.00;1.00;;;;;18.68;66.93;101335.88;4950604;28;8828;-69
2023/07/19 06:29:58;;;;;;;;;0.25;0.25;;;;;18.75;66.82;101330.31;4949644;28;8880;-70
2023/07/19 06:32:24;;;;;;;;;0.50;0.00;;;;;18.82;66.52;101336.47;4950490;28;8848;-69
2023/07/19 06:34:51;;;;;;;;;0.25;0.25;;;;;18.85;65.78;101336.00;4950752;28;8836;-70
2023/07/19 06:37:18;;;;;;;;;0.25;0.25;;;;;18.85;64.80;101340.66;4967766;28;8842;-69
2023/07/19 06:39:46;;;;;;;;;0.00;0.00;;;;;18.87;64.31;101350.22;4949549;28;8821;-69
2023/07/19 06:42:12;;;;;;;;;1.50;1.50;;;;;18.90;63.77;101338.03;4949744;28;8976;-69
2023/07/19 06:44:40;;;;;;;;;0.25;0.25;;;;;18.93;63.43;101348.47;4950817;28;8840;-70
2023/07/19 06:47:06;;;;;;;;;1.00;1.00;;;;;18.96;63.07;101342.56;4949664;28;8839;-69
2023/07/19 06:49:33;;;;;;;;;0.00;0.00;;;;;19.02;62.64;101338.84;4950692;28;8875;-70
2023/07/19 06:52:00;;;;;;;;;1.00;1.00;;;;;19.06;62.59;101341.94;4950138;28;8876;-69
2023/07/19 06:54:26;;;;;;;;;1.00;1.00;;;;;19.08;62.04;101337.91;4949622;28;8852;-69
2023/07/19 06:56:53;;;;;;;;;1.50;1.00;;;;;19.14;61.99;101342.41;4950411;28;8848;-67
2023/07/19 06:59:19;;;;;;;;;3.00;1.75;;;;;19.15;61.77;101340.50;4949367;28;8844;-68
2023/07/19 07:01:45;;;;;;;;;1.00;1.00;;;;;19.13;61.62;101345.38;4949834;28;8890;-68
2023/07/19 07:04:13;;;;;;;;;0.75;0.25;;;;;19.15;61.42;101351.41;4950746;28;8852;-70
2023/07/19 07:06:39;;;;;;;;;0.75;0.00;;;;;19.14;61.37;101356.06;4964996;28;8939;-68
2023/07/19 07:09:06;;;;;;;;;0.00;0.00;;;;;19.13;61.59;101359.03;4950195;28;8816;-69
2023/07/19 07:11:32;;;;;;;;;1.00;1.00;;;;;19.17;61.47;101355.56;4949890;28;8871;-69
2023/07/19 07:13:59;;;;;;;;;0.00;0.00;;;;;19.23;61.66;101351.88;4948837;28;8832;-69
2023/07/19 07:16:25;;;;;;;;;2.00;1.00;;;;;19.29;61.53;101352.84;4948606;28;8861;-69
2023/07/19 07:18:52;;;;;;;;;1.75;1.75;;;;;19.27;61.35;101360.41;4945317;29;8862;-68
2023/07/19 07:21:18;;;;;;;;;1.00;1.00;;;;;19.29;61.40;101352.84;4945616;28;8832;-69
2023/07/19 07:23:45;;;;;;;;;1.25;1.25;;;;;19.26;61.23;101354.13;4948661;28;8947;-69
2023/07/19 07:26:12;;;;;;;;;1.00;1.00;;;;;19.27;61.50;101355.78;4948468;28;8947;-69
2023/07/19 07:28:39;;;;;;;;;0.00;0.00;;;;;19.28;61.57;101351.16;4949660;28;8836;-69
2023/07/19 07:31:11;;;;;;;;;0.50;0.50;;;;;19.26;61.70;101353.31;4949788;28;8854;-69
2023/07/19 07:33:38;;;;;;;;;2.50;0.00;;;;;19.27;61.73;101366.72;4949859;28;8853;-68
2023/07/19 07:36:05;;;;;;;;;0.25;0.00;;;;;19.26;62.24;101358.78;4948574;28;8839;-68
2023/07/19 07:38:32;;;;;;;;;1.25;1.00;;;;;19.28;62.31;101359.34;4964314;28;8879;-69
2023/07/19 07:41:06;;;;;;;;;1.00;1.00;;;;;19.24;62.44;101356.28;4963510;28;8844;-69
2023/07/19 07:43:34;;;;;;;;;2.00;1.25;;;;;19.24;62.84;101359.03;4963810;28;8852;-68
2023/07/19 07:46:01;;;;;;;;;0.25;0.25;;;;;19.24;62.97;101359.03;4948406;28;9530;-69
2023/07/19 07:48:27;;;;;;;;;1.00;1.00;;;;;19.26;62.85;101359.59;4964461;28;8944;-69
2023/07/19 07:50:54;;;;;;;;;0.75;0.75;;;;;19.29;62.90;101360.19;4949175;28;8878;-68
2023/07/19 07:53:21;;;;;;;;;1.00;1.00;;;;;19.17;62.80;101355.56;4950460;28;8892;-70
2023/07/19 07:55:48;;;;;;;;;0.50;0.50;;;;;19.20;62.81;101357.84;4949587;28;8828;-69
2023/07/19 07:58:15;;;;;;;;;1.00;1.00;;;;;19.18;62.91;101356.41;4949418;28;8816;-69
2023/07/19 08:00:42;;;;;;;;;1.00;1.00;;;;;19.20;62.89;101352.38;4964017;28;8851;-70
2023/07/19 08:03:09;;;;;;;;;1.75;1.00;;;;;19.25;62.82;101347.03;4949356;28;8954;-69
2023/07/19 08:05:40;;;;;;;;;2.00;1.00;;;;;19.27;62.78;101349.50;4950175;28;8829;-68
2023/07/19 08:08:07;;;;;;;;;2.00;2.00;;;;;19.36;62.71;101345.31;4949093;28;8836;-68
2023/07/19 08:10:39;;;;;;;;;3.00;1.00;;;;;19.42;62.67;101346.28;4948492;28;8832;-69
2023/07/19 08:13:07;;;;;;;;;1.00;1.00;;;;;19.35;62.90;101342.84;4949206;28;8855;-69
2023/07/19 08:15:33;;;;;;;;;1.00;1.00;;;;;19.46;62.77;101347.47;4949347;28;8907;-70
2023/07/19 08:18:00;;;;;;;;;2.00;1.00;;;;;19.51;62.65;101345.66;4949079;28;8828;-69
2023/07/19 08:20:27;;;;;;;;;1.75;1.75;;;;;19.53;62.69;101345.44;4963543;28;8867;-68
2023/07/19 08:22:53;;;;;;;;;2.00;2.00;;;;;19.53;62.86;101348.16;4931820;28;8844;-68
2023/07/19 08:25:21;;;;;;;;;1.00;1.00;;;;;19.54;62.94;101338.88;4949203;28;8860;-69
2023/07/19 08:27:53;;;;;;;;;1.00;1.00;;;;;19.54;62.97;101333.44;4963905;28;8833;-69
2023/07/19 08:30:20;;;;;;;;;2.00;2.00;;;;;19.44;63.03;101344.94;4948902;28;8910;-68
2023/07/19 08:32:47;;;;;;;;;1.75;1.75;;;;;19.43;63.20;101348.75;4949240;28;8913;-69
2023/07/19 08:35:16;;;;;;;;;2.00;2.00;;;;;19.45;63.21;101334.88;4948816;28;8852;-69
2023/07/19 08:37:44;;;;;;;;;0.00;0.00;;;;;19.49;63.05;101334.16;4948548;28;8820;-69
2023/07/19 08:40:15;;;;;;;;;0.75;0.75;;;;;19.53;62.55;101329.06;4947969;28;8836;-69
2023/07/19 08:42:43;;;;;;;;;0.50;0.50;;;;;19.48;61.95;101337.13;4980458;28;8856;-69
2023/07/19 08:45:11;;;;;;;;;1.25;1.00;;;;;19.45;61.96;101337.63;4949025;28;9675;-69
2023/07/19 08:47:39;;;;;;;;;1.00;1.00;;;;;19.45;61.89;101343.06;4947677;28;8832;-67
2023/07/19 08:50:07;;;;;;;;;1.00;1.00;;;;;19.43;62.18;101345.19;4948777;28;9441;-68
2023/07/19 08:52:34;;;;;;;;;1.25;0.25;;;;;19.42;62.44;101343.56;4963191;28;8844;-69
2023/07/19 08:55:01;;;;;;;;;0.75;0.75;;;;;19.38;62.85;101343.19;4948939;29;8816;-69
2023/07/19 08:57:28;;;;;;;;;0.50;0.50;;;;;19.33;63.37;101350.47;4948712;29;8855;-68
2023/07/19 08:59:55;;;;;;;;;1.75;1.75;;;;;19.30;64.17;101350.94;4947740;28;8913;-68
2023/07/19 09:02:21;;;;;;;;;1.00;1.00;;;;;19.30;64.62;101351.75;4974226;28;8859;-68
2023/07/19 09:05:05;;;;;;;;;1.00;1.00;;;;;19.29;65.14;101349.28;5029647;28;8816;-67
2023/07/19 09:07:33;;;;;;;;;1.00;1.00;;;;;19.30;65.33;101356.41;5013604;28;8897;-68
2023/07/19 09:09:59;;;;;;;;;1.00;1.00;;;;;19.29;65.66;101355.56;4949105;29;8828;-68
2023/07/19 09:12:38;;;;;;;;;1.25;1.00;;;;;19.33;65.63;101358.66;4947167;28;8852;-69
2023/07/19 09:15:08;;;;;;;;;1.00;1.00;;;;;19.36;65.96;101358.16;4948732;29;8824;-69
2023/07/19 09:17:37;;;;;;;;;1.00;1.00;;;;;19.43;65.99;101361.59;4948731;29;8816;-69
2023/07/19 09:20:04;;;;;;;;;1.25;1.25;;;;;19.47;65.73;101349.13;4947150;28;9553;-69
2023/07/19 09:22:31;;;;;;;;;1.50;1.50;;;;;19.45;65.46;101348.53;4964191;28;8856;-68
2023/07/19 09:25:01;;;;;;;;;1.00;1.00;;;;;19.52;65.15;101351.94;4966958;28;9618;-69
2023/07/19 09:27:29;;;;;;;;;2.00;1.00;;;;;19.67;64.42;101338.63;4951724;28;8844;-69
2023/07/19 09:29:56;;;;;;;;;2.00;2.00;;;;;19.67;63.61;101344.09;4951837;28;8938;-68
2023/07/19 09:32:24;;;;;;;;;3.00;2.00;;;;;19.65;64.09;101349.00;4951504;28;8865;-68
2023/07/19 09:34:55;;;;;;;;;3.75;2.00;;;;;19.62;64.11;101335.00;4951507;28;8852;-69
2023/07/19 09:37:23;;;;;;;;;3.00;3.00;;;;;19.58;64.37;101361.91;4950500;28;8859;-69
2023/07/19 09:39:50;;;;;;;;;2.00;2.00;;;;;19.57;64.32;101352.06;4951534;28;8840;-69
2023/07/19 09:42:18;;;;;;;;;2.00;2.00;;;;;19.60;63.80;101346.09;4951351;28;8875;-68
2023/07/19 09:44:46;;;;;;;;;2.25;2.00;;;;;19.62;63.51;101351.38;4951655;28;8824;-68
2023/07/19 09:47:14;;;;;;;;;3.50;2.00;;;;;19.61;63.24;101350.53;4966243;28;8860;-68
2023/07/19 09:49:55;;;;;;;;;2.50;2.50;;;;;19.64;62.99;101355.50;4951225;28;8820;-68
2023/07/19 09:52:24;;;;;;;;;5.00;3.00;;;;;19.67;63.01;101352.28;4951459;28;8921;-68
2023/07/19 09:54:52;;;;;;;;;4.00;2.00;;;;;19.73;62.92;101365.00;4951404;28;8836;-69
2023/07/19 09:57:24;;;;;;;;;2.50;2.50;;;;;19.75;62.77;101354.63;4949909;28;8982;-69
2023/07/19 09:59:51;;;;;;;;;3.25;3.00;;;;;19.79;62.57;101348.69;4951168;28;8828;-68
2023/07/19 10:02:21;;;;;;;;;3.00;1.50;;;;;19.83;62.71;101349.88;4950828;28;8844;-68
2023/07/19 10:04:48;;;;;;;;;1.75;1.75;;;;;19.92;62.80;101356.59;4949855;28;8850;-69
2023/07/19 10:07:25;;;;;;;;;2.00;2.00;;;;;20.02;62.18;101351.34;4950952;28;8858;-70
2023/07/19 10:10:07;;;;;;;;;6.75;6.00;;;;;20.06;61.85;101360.72;4951023;28;8820;-70
2023/07/19 10:12:36;;;;;;;;;2.25;2.25;;;;;20.02;61.37;101354.06;4950895;28;9639;-68
2023/07/19 10:15:06;;;;;;;;;2.00;1.75;;;;;20.00;60.97;101346.09;4965732;28;8883;-69
2023/07/19 10:17:54;;;;;;;;;5.25;3.00;;;;;20.04;60.94;101351.91;4965582;28;8971;-69
2023/07/19 10:20:30;;;;;;;;;3.00;2.00;;;;;20.08;60.97;101361.28;4965465;28;8832;-68
2023/07/19 10:23:04;;;;;;;;;2.00;1.75;;;;;20.11;60.85;101359.97;4950892;28;9557;-68
2023/07/19 10:25:34;;;;;;;;;2.75;2.75;;;;;20.11;60.31;101349.88;4949810;28;9604;-69
2023/07/19 10:28:04;;;;;;;;;2.25;1.00;;;;;20.10;60.06;101353.69;4950233;28;8832;-68
2023/07/19 10:30:46;;;;;;;;;2.25;0.75;;;;;20.10;59.56;101348.22;4949076;28;8836;-69
2023/07/19 10:33:15;;;;;;;;;1.00;1.00;;;;;20.16;59.21;101352.69;4950582;28;8844;-69
2023/07/19 10:35:42;;;;;;;;;0.50;0.50;;;;;20.27;58.91;101350.97;4950658;28;8862;-68
2023/07/19 10:38:27;;;;;;;;;2.50;0.25;;;;;20.41;58.87;101352.31;4950711;28;8862;-68
2023/07/19 10:40:58;;;;;;;;;2.00;1.00;;;;;20.54;58.39;101358.56;4950615;28;8966;-69
2023/07/19 10:43:29;;;;;;;;;2.00;2.00;;;;;20.56;57.99;101357.25;4933763;28;8852;-69
2023/07/19 10:45:59;;;;;;;;;0.00;0.00;;;;;20.62;57.87;101352.66;4950803;28;8816;-69
2023/07/19 10:48:28;;;;;;;;;4.75;2.00;;;;;20.62;58.07;101366.34;4950402;28;8829;-69
2023/07/19 10:50:57;;;;;;;;;1.00;1.00;;;;;20.61;58.14;101356.50;4950067;28;8855;-67
2023/07/19 10:53:24;;;;;;;;;1.25;1.00;;;;;20.67;58.16;101352.78;4933189;28;8872;-68
2023/07/19 10:55:58;;;;;;;;;2.25;2.25;;;;;20.76;57.72;101351.28;4950439;28;8842;-69
2023/07/19 10:58:25;;;;;;;;;1.50;1.50;;;;;20.71;57.95;101353.94;4950431;28;9655;-69
2023/07/19 11:00:52;;;;;;;;;3.00;2.00;;;;;20.65;57.85;101358.47;4950303;28;8986;-70
2023/07/19 11:03:22;;;;;;;;;1.50;1.50;;;;;20.70;57.80;101353.13;4949747;28;8832;-70
2023/07/19 11:05:51;;;;;;;;;2.25;2.25;;;;;20.81;57.98;101351.34;4950517;28;8828;-69
2023/07/19 11:08:24;;;;;;;;;1.00;1.00;;;;;20.88;57.62;101349.28;4949083;28;9585;-68
2023/07/19 11:10:54;;;;;;;;;1.50;1.50;;;;;20.92;57.63;101347.69;4964806;28;8829;-69
2023/07/19 11:13:22;;;;;;;;;1.50;1.50;;;;;20.97;57.76;101349.66;4980961;28;8866;-69
2023/07/19 11:15:57;;;;;;;;;1.00;1.00;;;;;21.04;57.76;101353.06;4950256;28;8829;-69
2023/07/19 11:18:30;;;;;;;;;1.25;1.00;;;;;21.11;57.58;101348.25;4964869;28;8872;-68
2023/07/19 11:20:57;;;;;;;;;2.50;2.50;;;;;21.15;57.36;101343.09;4949904;28;8875;-68
2023/07/19 11:23:25;;;;;;;;;2.00;2.00;;;;;21.16;57.14;101347.50;4949890;28;9001;-69
2023/07/19 11:26:11;;;;;;;;;1.50;1.25;;;;;21.15;56.50;101349.41;4949208;28;8828;-68
2023/07/19 11:28:44;;;;;;;;;2.00;2.00;;;;;21.18;56.64;101348.06;4980710;28;8852;-69
2023/07/19 11:31:39;;;;;;;;;1.00;1.00;;;;;21.15;56.62;101349.41;4949448;28;8967;-69
2023/07/19 11:34:13;;;;;;;;;1.25;1.25;;;;;21.12;55.92;101349.06;4984660;28;8836;-69
2023/07/19 11:36:42;;;;;;;;;1.00;1.00;;;;;21.09;55.94;101349.56;5030665;28;8941;-68
2023/07/19 11:39:21;;;;;;;;;2.50;1.00;;;;;21.06;56.75;101350.06;4997827;28;9713;-69